sensor_id;sensor_type;location;lat;lon;timestamp;temperature;humidity
22108;DHT22;11220;48.812;9.128;2023-04-09T00:01:30;17.40;73.60
22108;DHT22;11220;48.812;9.128;2023-04-09T00:03:56;17.50;72.70
22108;DHT22;11220;48.812;9.128;2023-04-09T00:06:21;17.40;72.60
22108;DHT22;11220;48.812;9.128;2023-04-09T00:08:47;17.50;72.70
22108;DHT22;11220;48.812;9.128;2023-04-09T00:11:12;17.40;72.60
22108;DHT22;11220;48.812;9.128;2023-04-09T00:13:38;17.40;72.60
22108;DHT22;11220;48.812;9.128;2023-04-09T00:16:04;17.40;72.60
22108;DHT22;11220;48.812;9.128;2023-04-09T00:18:29;17.40;72.50
22108;DHT22;11220;48.812;9.128;2023-04-09T00:20:55;17.40;72.50
22108;DHT22;11220;48.812;9.128;2023-04-09T00:23:20;17.40;72.60
22108;DHT22;11220;48.812;9.128;2023-04-09T00:25:46;17.40;72.60
22108;DHT22;11220;48.812;9.128;2023-04-09T00:28:11;17.40;72.50
22108;DHT22;11220;48.812;9.128;2023-04-09T00:30:37;17.40;72.50
22108;DHT22;11220;48.812;9.128;2023-04-09T00:33:02;17.40;72.50
22108;DHT22;11220;48.812;9.128;2023-04-09T00:35:28;17.40;72.50
22108;DHT22;11220;48.812;9.128;2023-04-09T00:37:54;17.40;72.50
22108;DHT22;11220;48.812;9.128;2023-04-09T00:40:19;17.40;72.50
22108;DHT22;11220;48.812;9.128;2023-04-09T00:42:45;17.40;72.50
22108;DHT22;11220;48.812;9.128;2023-04-09T00:45:12;18.20;73.00
22108;DHT22;11220;48.812;9.128;2023-04-09T00:47:38;17.30;72.40
22108;DHT22;11220;48.812;9.128;2023-04-09T00:50:04;17.30;72.40
22108;DHT22;11220;48.812;9.128;2023-04-09T00:52:29;17.30;72.30
22108;DHT22;11220;48.812;9.128;2023-04-09T00:54:55;17.30;72.30
22108;DHT22;11220;48.812;9.128;2023-04-09T00:57:23;17.30;72.40
22108;DHT22;11220;48.812;9.128;2023-04-09T00:59:48;17.30;72.30
22108;DHT22;11220;48.812;9.128;2023-04-09T01:02:14;17.30;72.30
22108;DHT22;11220;48.812;9.128;2023-04-09T01:04:41;17.30;72.30
22108;DHT22;11220;48.812;9.128;2023-04-09T01:07:18;17.30;72.30
22108;DHT22;11220;48.812;9.128;2023-04-09T01:10:24;17.30;72.30
22108;DHT22;11220;48.812;9.128;2023-04-09T01:13:12;17.30;72.30
22108;DHT22;11220;48.812;9.128;2023-04-09T01:15:47;17.30;72.20
22108;DHT22;11220;48.812;9.128;2023-04-09T01:18:29;17.30;72.30
22108;DHT22;11220;48.812;9.128;2023-04-09T01:20:59;17.30;72.30
22108;DHT22;11220;48.812;9.128;2023-04-09T01:28:48;17.30;72.30
22108;DHT22;11220;48.812;9.128;2023-04-09T01:31:18;17.30;72.30
22108;DHT22;11220;48.812;9.128;2023-04-09T01:33:44;17.20;72.30
22108;DHT22;11220;48.812;9.128;2023-04-09T01:36:10;17.20;72.30
22108;DHT22;11220;48.812;9.128;2023-04-09T01:38:39;17.30;72.40
22108;DHT22;11220;48.812;9.128;2023-04-09T01:41:06;17.30;72.30
22108;DHT22;11220;48.812;9.128;2023-04-09T01:43:33;17.20;72.30
22108;DHT22;11220;48.812;9.128;2023-04-09T01:46:00;17.20;72.30
22108;DHT22;11220;48.812;9.128;2023-04-09T01:48:28;17.20;72.30
22108;DHT22;11220;48.812;9.128;2023-04-09T01:50:55;17.20;72.30
22108;DHT22;11220;48.812;9.128;2023-04-09T01:53:21;17.20;72.30
22108;DHT22;11220;48.812;9.128;2023-04-09T01:55:46;17.20;72.30
22108;DHT22;11220;48.812;9.128;2023-04-09T01:58:12;17.20;72.30
22108;DHT22;11220;48.812;9.128;2023-04-09T02:00:41;17.20;72.30
22108;DHT22;11220;48.812;9.128;2023-04-09T02:03:23;17.20;72.20
22108;DHT22;11220;48.812;9.128;2023-04-09T02:08:36;17.20;72.20
22108;DHT22;11220;48.812;9.128;2023-04-09T02:11:04;17.20;72.20
22108;DHT22;11220;48.812;9.128;2023-04-09T02:13:33;17.20;72.20
22108;DHT22;11220;48.812;9.128;2023-04-09T02:16:00;17.20;72.20
22108;DHT22;11220;48.812;9.128;2023-04-09T02:18:28;17.20;72.20
22108;DHT22;11220;48.812;9.128;2023-04-09T02:20:55;17.20;72.10
22108;DHT22;11220;48.812;9.128;2023-04-09T02:23:21;17.50;72.30
22108;DHT22;11220;48.812;9.128;2023-04-09T02:25:47;17.20;72.10
22108;DHT22;11220;48.812;9.128;2023-04-09T02:28:13;17.20;72.10
22108;DHT22;11220;48.812;9.128;2023-04-09T02:30:38;17.20;72.10
22108;DHT22;11220;48.812;9.128;2023-04-09T02:33:04;17.20;72.10
22108;DHT22;11220;48.812;9.128;2023-04-09T02:35:29;17.20;72.10
22108;DHT22;11220;48.812;9.128;2023-04-09T02:37:55;17.20;72.00
22108;DHT22;11220;48.812;9.128;2023-04-09T02:40:21;17.20;72.10
22108;DHT22;11220;48.812;9.128;2023-04-09T02:42:46;17.20;72.00
22108;DHT22;11220;48.812;9.128;2023-04-09T02:45:12;17.20;72.00
22108;DHT22;11220;48.812;9.128;2023-04-09T02:47:37;17.20;72.00
22108;DHT22;11220;48.812;9.128;2023-04-09T02:50:04;17.20;72.00
22108;DHT22;11220;48.812;9.128;2023-04-09T02:52:30;17.20;72.00
22108;DHT22;11220;48.812;9.128;2023-04-09T02:54:55;17.10;72.00
22108;DHT22;11220;48.812;9.128;2023-04-09T02:57:21;17.10;72.00
22108;DHT22;11220;48.812;9.128;2023-04-09T02:59:46;17.10;72.00
22108;DHT22;11220;48.812;9.128;2023-04-09T03:02:12;17.10;71.90
22108;DHT22;11220;48.812;9.128;2023-04-09T03:04:38;17.10;71.90
22108;DHT22;11220;48.812;9.128;2023-04-09T03:07:03;17.10;71.90
22108;DHT22;11220;48.812;9.128;2023-04-09T03:09:29;17.10;71.90
22108;DHT22;11220;48.812;9.128;2023-04-09T03:11:55;17.10;71.90
22108;DHT22;11220;48.812;9.128;2023-04-09T03:14:24;17.10;71.90
22108;DHT22;11220;48.812;9.128;2023-04-09T03:16:49;17.10;71.90
22108;DHT22;11220;48.812;9.128;2023-04-09T03:19:15;17.10;71.90
22108;DHT22;11220;48.812;9.128;2023-04-09T03:21:41;17.10;72.00
22108;DHT22;11220;48.812;9.128;2023-04-09T03:24:07;17.10;71.90
22108;DHT22;11220;48.812;9.128;2023-04-09T03:26:32;17.00;71.80
22108;DHT22;11220;48.812;9.128;2023-04-09T03:29:04;17.10;71.90
22108;DHT22;11220;48.812;9.128;2023-04-09T03:31:30;17.10;71.80
22108;DHT22;11220;48.812;9.128;2023-04-09T03:33:56;17.10;71.80
22108;DHT22;11220;48.812;9.128;2023-04-09T03:36:21;17.10;71.80
22108;DHT22;11220;48.812;9.128;2023-04-09T03:38:47;17.10;71.90
22108;DHT22;11220;48.812;9.128;2023-04-09T03:41:12;17.10;71.90
22108;DHT22;11220;48.812;9.128;2023-04-09T03:43:38;17.10;71.80
22108;DHT22;11220;48.812;9.128;2023-04-09T03:46:14;18.00;72.40
22108;DHT22;11220;48.812;9.128;2023-04-09T03:48:39;17.10;71.90
22108;DHT22;11220;48.812;9.128;2023-04-09T03:51:05;17.10;71.80
22108;DHT22;11220;48.812;9.128;2023-04-09T03:53:31;17.10;71.80
22108;DHT22;11220;48.812;9.128;2023-04-09T03:55:57;17.10;71.80
22108;DHT22;11220;48.812;9.128;2023-04-09T03:58:22;17.10;71.80
22108;DHT22;11220;48.812;9.128;2023-04-09T04:00:48;17.00;71.70
22108;DHT22;11220;48.812;9.128;2023-04-09T04:03:13;17.00;71.70
22108;DHT22;11220;48.812;9.128;2023-04-09T04:05:40;17.00;71.70
22108;DHT22;11220;48.812;9.128;2023-04-09T04:08:06;17.00;71.60
22108;DHT22;11220;48.812;9.128;2023-04-09T04:10:33;17.00;71.70
22108;DHT22;11220;48.812;9.128;2023-04-09T04:12:58;17.00;71.70
22108;DHT22;11220;48.812;9.128;2023-04-09T04:15:24;17.00;71.60
22108;DHT22;11220;48.812;9.128;2023-04-09T04:17:50;17.00;71.60
22108;DHT22;11220;48.812;9.128;2023-04-09T04:20:15;17.00;71.60
22108;DHT22;11220;48.812;9.128;2023-04-09T04:22:41;17.00;71.60
22108;DHT22;11220;48.812;9.128;2023-04-09T04:25:07;17.00;71.60
22108;DHT22;11220;48.812;9.128;2023-04-09T04:27:32;17.00;71.60
22108;DHT22;11220;48.812;9.128;2023-04-09T04:29:58;17.00;71.60
22108;DHT22;11220;48.812;9.128;2023-04-09T04:32:24;17.00;71.60
22108;DHT22;11220;48.812;9.128;2023-04-09T04:34:50;17.00;71.60
22108;DHT22;11220;48.812;9.128;2023-04-09T04:37:15;17.00;71.60
22108;DHT22;11220;48.812;9.128;2023-04-09T04:39:41;17.00;71.50
22108;DHT22;11220;48.812;9.128;2023-04-09T04:42:06;17.50;71.80
22108;DHT22;11220;48.812;9.128;2023-04-09T04:44:32;17.00;71.50
22108;DHT22;11220;48.812;9.128;2023-04-09T04:46:57;17.00;71.50
22108;DHT22;11220;48.812;9.128;2023-04-09T04:49:23;17.00;71.50
22108;DHT22;11220;48.812;9.128;2023-04-09T04:51:49;17.00;71.50
22108;DHT22;11220;48.812;9.128;2023-04-09T04:54:14;17.00;71.50
22108;DHT22;11220;48.812;9.128;2023-04-09T04:56:40;17.00;71.50
22108;DHT22;11220;48.812;9.128;2023-04-09T04:59:05;17.00;71.60
22108;DHT22;11220;48.812;9.128;2023-04-09T05:01:31;17.00;71.60
22108;DHT22;11220;48.812;9.128;2023-04-09T05:03:56;17.00;71.70
22108;DHT22;11220;48.812;9.128;2023-04-09T05:06:22;17.00;71.70
22108;DHT22;11220;48.812;9.128;2023-04-09T05:08:47;17.80;72.20
22108;DHT22;11220;48.812;9.128;2023-04-09T05:11:13;17.10;71.80
22108;DHT22;11220;48.812;9.128;2023-04-09T05:13:40;17.10;71.80
22108;DHT22;11220;48.812;9.128;2023-04-09T05:16:06;17.10;71.90
22108;DHT22;11220;48.812;9.128;2023-04-09T05:18:31;17.10;71.90
22108;DHT22;11220;48.812;9.128;2023-04-09T05:20:57;17.10;71.80
22108;DHT22;11220;48.812;9.128;2023-04-09T05:23:22;17.10;71.90
22108;DHT22;11220;48.812;9.128;2023-04-09T05:25:48;17.20;72.00
22108;DHT22;11220;48.812;9.128;2023-04-09T05:28:14;17.20;71.90
22108;DHT22;11220;48.812;9.128;2023-04-09T05:30:45;17.20;71.90
22108;DHT22;11220;48.812;9.128;2023-04-09T05:33:10;17.30;71.90
22108;DHT22;11220;48.812;9.128;2023-04-09T05:35:39;17.30;71.90
22108;DHT22;11220;48.812;9.128;2023-04-09T05:38:04;17.30;71.80
22108;DHT22;11220;48.812;9.128;2023-04-09T05:40:30;17.30;71.80
22108;DHT22;11220;48.812;9.128;2023-04-09T05:42:56;17.40;71.80
22108;DHT22;11220;48.812;9.128;2023-04-09T05:45:21;17.40;71.70
22108;DHT22;11220;48.812;9.128;2023-04-09T05:47:47;17.40;71.60
22108;DHT22;11220;48.812;9.128;2023-04-09T05:50:12;17.50;71.60
22108;DHT22;11220;48.812;9.128;2023-04-09T05:52:38;17.40;71.50
22108;DHT22;11220;48.812;9.128;2023-04-09T05:55:04;17.50;71.50
22108;DHT22;11220;48.812;9.128;2023-04-09T05:57:31;17.50;71.50
22108;DHT22;11220;48.812;9.128;2023-04-09T05:59:57;17.60;71.50
22108;DHT22;11220;48.812;9.128;2023-04-09T06:02:23;17.60;71.50
22108;DHT22;11220;48.812;9.128;2023-04-09T06:04:49;17.70;71.50
22108;DHT22;11220;48.812;9.128;2023-04-09T06:07:15;17.70;71.40
22108;DHT22;11220;48.812;9.128;2023-04-09T06:09:40;17.70;71.30
22108;DHT22;11220;48.812;9.128;2023-04-09T06:12:08;17.70;71.30
22108;DHT22;11220;48.812;9.128;2023-04-09T06:14:34;17.70;71.20
22108;DHT22;11220;48.812;9.128;2023-04-09T06:16:59;17.80;71.20
22108;DHT22;11220;48.812;9.128;2023-04-09T06:19:25;17.80;71.10
22108;DHT22;11220;48.812;9.128;2023-04-09T06:21:51;17.80;71.10
22108;DHT22;11220;48.812;9.128;2023-04-09T06:24:16;17.80;71.10
22108;DHT22;11220;48.812;9.128;2023-04-09T06:26:42;17.90;71.20
22108;DHT22;11220;48.812;9.128;2023-04-09T06:29:07;17.90;71.10
22108;DHT22;11220;48.812;9.128;2023-04-09T06:31:33;17.90;71.10
22108;DHT22;11220;48.812;9.128;2023-04-09T06:33:58;17.90;70.90
22108;DHT22;11220;48.812;9.128;2023-04-09T06:36:24;17.90;70.90
22108;DHT22;11220;48.812;9.128;2023-04-09T06:38:51;17.90;70.80
22108;DHT22;11220;48.812;9.128;2023-04-09T06:41:20;17.90;70.90
22108;DHT22;11220;48.812;9.128;2023-04-09T06:43:45;17.90;70.80
22108;DHT22;11220;48.812;9.128;2023-04-09T06:46:11;17.90;70.80
22108;DHT22;11220;48.812;9.128;2023-04-09T06:48:37;18.00;70.80
22108;DHT22;11220;48.812;9.128;2023-04-09T06:51:05;18.00;70.90
22108;DHT22;11220;48.812;9.128;2023-04-09T06:53:30;18.00;70.90
22108;DHT22;11220;48.812;9.128;2023-04-09T06:55:56;18.00;70.90
22108;DHT22;11220;48.812;9.128;2023-04-09T06:58:21;18.00;70.90
22108;DHT22;11220;48.812;9.128;2023-04-09T07:00:47;18.00;70.70
22108;DHT22;11220;48.812;9.128;2023-04-09T07:03:13;18.00;70.70
22108;DHT22;11220;48.812;9.128;2023-04-09T07:05:39;18.00;70.60
22108;DHT22;11220;48.812;9.128;2023-04-09T07:08:04;18.00;70.70
22108;DHT22;11220;48.812;9.128;2023-04-09T07:10:30;18.00;70.60
22108;DHT22;11220;48.812;9.128;2023-04-09T07:12:55;18.00;70.60
22108;DHT22;11220;48.812;9.128;2023-04-09T07:15:21;18.10;70.60
22108;DHT22;11220;48.812;9.128;2023-04-09T07:17:46;18.00;70.60
22108;DHT22;11220;48.812;9.128;2023-04-09T07:20:12;18.00;70.60
22108;DHT22;11220;48.812;9.128;2023-04-09T07:22:38;18.00;70.60
22108;DHT22;11220;48.812;9.128;2023-04-09T07:25:03;18.00;70.60
22108;DHT22;11220;48.812;9.128;2023-04-09T07:27:29;18.10;70.60
22108;DHT22;11220;48.812;9.128;2023-04-09T07:29:56;18.10;70.60
22108;DHT22;11220;48.812;9.128;2023-04-09T07:32:22;18.10;70.60
22108;DHT22;11220;48.812;9.128;2023-04-09T07:34:50;18.00;70.70
22108;DHT22;11220;48.812;9.128;2023-04-09T07:37:16;18.10;70.90
22108;DHT22;11220;48.812;9.128;2023-04-09T07:39:42;18.10;70.90
22108;DHT22;11220;48.812;9.128;2023-04-09T07:42:07;18.10;70.90
22108;DHT22;11220;48.812;9.128;2023-04-09T07:44:36;18.10;71.00
22108;DHT22;11220;48.812;9.128;2023-04-09T07:47:03;18.10;71.00
22108;DHT22;11220;48.812;9.128;2023-04-09T07:49:28;18.10;71.20
22108;DHT22;11220;48.812;9.128;2023-04-09T07:51:55;18.10;71.10
22108;DHT22;11220;48.812;9.128;2023-04-09T07:54:20;18.10;71.10
22108;DHT22;11220;48.812;9.128;2023-04-09T07:56:47;18.10;71.20
22108;DHT22;11220;48.812;9.128;2023-04-09T07:59:12;18.80;71.70
22108;DHT22;11220;48.812;9.128;2023-04-09T08:01:40;18.10;71.30
22108;DHT22;11220;48.812;9.128;2023-04-09T08:04:05;18.10;71.20
22108;DHT22;11220;48.812;9.128;2023-04-09T08:06:31;18.10;71.20
22108;DHT22;11220;48.812;9.128;2023-04-09T08:08:57;18.10;71.20
22108;DHT22;11220;48.812;9.128;2023-04-09T08:11:22;18.10;71.30
22108;DHT22;11220;48.812;9.128;2023-04-09T08:13:51;18.10;71.20
22108;DHT22;11220;48.812;9.128;2023-04-09T08:16:17;18.10;71.10
22108;DHT22;11220;48.812;9.128;2023-04-09T08:18:42;18.10;71.00
22108;DHT22;11220;48.812;9.128;2023-04-09T08:21:08;19.20;71.60
22108;DHT22;11220;48.812;9.128;2023-04-09T08:23:33;18.10;70.90
22108;DHT22;11220;48.812;9.128;2023-04-09T08:25:59;18.20;71.00
22108;DHT22;11220;48.812;9.128;2023-04-09T08:28:25;18.20;70.90
22108;DHT22;11220;48.812;9.128;2023-04-09T08:30:50;18.20;70.80
22108;DHT22;11220;48.812;9.128;2023-04-09T08:33:16;18.20;70.70
22108;DHT22;11220;48.812;9.128;2023-04-09T08:35:42;18.20;70.60
22108;DHT22;11220;48.812;9.128;2023-04-09T08:38:08;18.20;70.40
22108;DHT22;11220;48.812;9.128;2023-04-09T08:40:34;18.20;71.20
22108;DHT22;11220;48.812;9.128;2023-04-09T08:43:04;18.20;70.10
22108;DHT22;11220;48.812;9.128;2023-04-09T08:45:31;18.20;70.00
22108;DHT22;11220;48.812;9.128;2023-04-09T08:47:56;18.30;70.00
22108;DHT22;11220;48.812;9.128;2023-04-09T08:50:27;18.30;69.90
22108;DHT22;11220;48.812;9.128;2023-04-09T08:52:53;18.30;69.80
22108;DHT22;11220;48.812;9.128;2023-04-09T08:55:21;18.30;69.70
22108;DHT22;11220;48.812;9.128;2023-04-09T08:57:46;18.30;69.60
22108;DHT22;11220;48.812;9.128;2023-04-09T09:00:12;18.30;69.50
22108;DHT22;11220;48.812;9.128;2023-04-09T09:02:38;18.30;69.50
22108;DHT22;11220;48.812;9.128;2023-04-09T09:05:04;18.40;69.40
22108;DHT22;11220;48.812;9.128;2023-04-09T09:07:31;18.40;69.40
22108;DHT22;11220;48.812;9.128;2023-04-09T09:10:00;18.60;69.50
22108;DHT22;11220;48.812;9.128;2023-04-09T09:12:35;18.40;69.30
22108;DHT22;11220;48.812;9.128;2023-04-09T09:15:01;18.50;69.30
22108;DHT22;11220;48.812;9.128;2023-04-09T09:17:27;18.50;69.20
22108;DHT22;11220;48.812;9.128;2023-04-09T09:19:52;18.50;69.20
22108;DHT22;11220;48.812;9.128;2023-04-09T09:22:18;18.50;69.00
22108;DHT22;11220;48.812;9.128;2023-04-09T09:24:47;18.50;69.00
22108;DHT22;11220;48.812;9.128;2023-04-09T09:27:35;18.50;68.90
22108;DHT22;11220;48.812;9.128;2023-04-09T09:30:05;18.60;68.90
22108;DHT22;11220;48.812;9.128;2023-04-09T09:32:32;18.60;68.80
22108;DHT22;11220;48.812;9.128;2023-04-09T09:35:07;18.50;68.80
22108;DHT22;11220;48.812;9.128;2023-04-09T09:37:33;18.60;68.80
22108;DHT22;11220;48.812;9.128;2023-04-09T09:39:59;18.60;68.80
22108;DHT22;11220;48.812;9.128;2023-04-09T09:42:26;18.60;68.80
22108;DHT22;11220;48.812;9.128;2023-04-09T09:44:53;18.60;68.90
22108;DHT22;11220;48.812;9.128;2023-04-09T09:47:20;18.60;68.90
22108;DHT22;11220;48.812;9.128;2023-04-09T09:49:49;18.60;68.90
22108;DHT22;11220;48.812;9.128;2023-04-09T09:52:19;18.70;69.00
22108;DHT22;11220;48.812;9.128;2023-04-09T09:54:49;18.60;68.90
22108;DHT22;11220;48.812;9.128;2023-04-09T09:57:18;18.70;69.00
22108;DHT22;11220;48.812;9.128;2023-04-09T09:59:54;18.70;69.00
22108;DHT22;11220;48.812;9.128;2023-04-09T10:02:23;18.70;69.00
22108;DHT22;11220;48.812;9.128;2023-04-09T10:04:51;18.70;69.10
22108;DHT22;11220;48.812;9.128;2023-04-09T10:07:18;18.70;69.10
22108;DHT22;11220;48.812;9.128;2023-04-09T10:09:48;18.70;69.10
22108;DHT22;11220;48.812;9.128;2023-04-09T10:12:15;18.70;69.10
22108;DHT22;11220;48.812;9.128;2023-04-09T10:14:41;18.80;69.20
22108;DHT22;11220;48.812;9.128;2023-04-09T10:17:08;18.70;69.10
22108;DHT22;11220;48.812;9.128;2023-04-09T10:19:38;18.80;69.20
22108;DHT22;11220;48.812;9.128;2023-04-09T10:22:10;18.80;69.20
22108;DHT22;11220;48.812;9.128;2023-04-09T10:24:36;19.20;69.70
22108;DHT22;11220;48.812;9.128;2023-04-09T10:27:15;18.80;69.20
22108;DHT22;11220;48.812;9.128;2023-04-09T10:29:45;18.90;69.30
22108;DHT22;11220;48.812;9.128;2023-04-09T10:32:11;18.90;69.30
22108;DHT22;11220;48.812;9.128;2023-04-09T10:34:41;18.90;69.30
22108;DHT22;11220;48.812;9.128;2023-04-09T10:37:29;18.90;69.30
22108;DHT22;11220;48.812;9.128;2023-04-09T10:39:54;18.90;69.30
22108;DHT22;11220;48.812;9.128;2023-04-09T10:42:35;18.90;69.30
22108;DHT22;11220;48.812;9.128;2023-04-09T10:45:14;18.90;69.30
22108;DHT22;11220;48.812;9.128;2023-04-09T10:47:42;18.90;69.40
22108;DHT22;11220;48.812;9.128;2023-04-09T10:50:16;18.90;69.40
22108;DHT22;11220;48.812;9.128;2023-04-09T10:52:42;19.00;70.40
22108;DHT22;11220;48.812;9.128;2023-04-09T10:55:09;19.00;69.40
22108;DHT22;11220;48.812;9.128;2023-04-09T10:57:35;20.20;70.10
22108;DHT22;11220;48.812;9.128;2023-04-09T11:00:00;19.00;69.40
22108;DHT22;11220;48.812;9.128;2023-04-09T11:10:31;19.10;69.50
22108;DHT22;11220;48.812;9.128;2023-04-09T11:12:58;19.10;69.50
22108;DHT22;11220;48.812;9.128;2023-04-09T11:15:23;19.10;69.50
22108;DHT22;11220;48.812;9.128;2023-04-09T11:17:49;19.10;69.50
22108;DHT22;11220;48.812;9.128;2023-04-09T11:20:18;19.30;69.60
22108;DHT22;11220;48.812;9.128;2023-04-09T11:22:44;19.20;69.50
22108;DHT22;11220;48.812;9.128;2023-04-09T11:25:20;19.20;69.40
22108;DHT22;11220;48.812;9.128;2023-04-09T11:27:46;19.20;69.40
22108;DHT22;11220;48.812;9.128;2023-04-09T11:30:12;19.20;69.30
22108;DHT22;11220;48.812;9.128;2023-04-09T11:32:38;19.20;69.30
22108;DHT22;11220;48.812;9.128;2023-04-09T11:35:04;19.20;69.20
22108;DHT22;11220;48.812;9.128;2023-04-09T11:37:30;19.30;69.30
22108;DHT22;11220;48.812;9.128;2023-04-09T11:39:55;19.30;69.30
22108;DHT22;11220;48.812;9.128;2023-04-09T11:42:22;19.30;69.10
22108;DHT22;11220;48.812;9.128;2023-04-09T11:44:49;19.30;68.90
22108;DHT22;11220;48.812;9.128;2023-04-09T11:47:16;19.30;68.60
22108;DHT22;11220;48.812;9.128;2023-04-09T11:49:43;19.30;68.30
22108;DHT22;11220;48.812;9.128;2023-04-09T11:52:09;19.40;68.20
22108;DHT22;11220;48.812;9.128;2023-04-09T11:54:35;19.40;68.10
22108;DHT22;11220;48.812;9.128;2023-04-09T11:57:02;19.40;68.00
22108;DHT22;11220;48.812;9.128;2023-04-09T11:59:28;19.40;68.00
22108;DHT22;11220;48.812;9.128;2023-04-09T12:01:56;19.40;67.90
22108;DHT22;11220;48.812;9.128;2023-04-09T12:04:22;19.50;67.90
22108;DHT22;11220;48.812;9.128;2023-04-09T12:06:48;19.40;67.90
22108;DHT22;11220;48.812;9.128;2023-04-09T12:09:13;19.40;67.90
22108;DHT22;11220;48.812;9.128;2023-04-09T12:11:43;19.50;68.00
22108;DHT22;11220;48.812;9.128;2023-04-09T12:14:12;20.30;68.50
22108;DHT22;11220;48.812;9.128;2023-04-09T12:16:38;19.50;68.10
22108;DHT22;11220;48.812;9.128;2023-04-09T12:19:12;19.50;68.10
22108;DHT22;11220;48.812;9.128;2023-04-09T12:21:48;19.50;68.20
22108;DHT22;11220;48.812;9.128;2023-04-09T12:24:18;19.60;68.10
22108;DHT22;11220;48.812;9.128;2023-04-09T12:26:45;19.60;68.20
22108;DHT22;11220;48.812;9.128;2023-04-09T12:29:14;19.70;68.30
22108;DHT22;11220;48.812;9.128;2023-04-09T12:31:40;19.60;68.20
22108;DHT22;11220;48.812;9.128;2023-04-09T12:34:06;19.70;68.30
22108;DHT22;11220;48.812;9.128;2023-04-09T12:36:31;19.70;68.30
22108;DHT22;11220;48.812;9.128;2023-04-09T12:38:57;19.70;68.20
22108;DHT22;11220;48.812;9.128;2023-04-09T12:41:22;19.70;68.20
22108;DHT22;11220;48.812;9.128;2023-04-09T12:43:48;19.70;68.30
22108;DHT22;11220;48.812;9.128;2023-04-09T12:46:13;19.70;68.40
22108;DHT22;11220;48.812;9.128;2023-04-09T12:48:39;19.80;68.60
22108;DHT22;11220;48.812;9.128;2023-04-09T12:51:05;19.80;68.60
22108;DHT22;11220;48.812;9.128;2023-04-09T12:53:31;19.80;68.70
22108;DHT22;11220;48.812;9.128;2023-04-09T12:55:57;19.80;69.60
22108;DHT22;11220;48.812;9.128;2023-04-09T12:58:22;19.80;68.50
22108;DHT22;11220;48.812;9.128;2023-04-09T13:00:48;19.90;68.50
22108;DHT22;11220;48.812;9.128;2023-04-09T13:03:14;19.90;68.30
22108;DHT22;11220;48.812;9.128;2023-04-09T13:05:42;19.90;68.20
22108;DHT22;11220;48.812;9.128;2023-04-09T13:08:08;19.90;68.20
22108;DHT22;11220;48.812;9.128;2023-04-09T13:10:34;19.90;68.40
22108;DHT22;11220;48.812;9.128;2023-04-09T13:13:00;20.00;68.50
22108;DHT22;11220;48.812;9.128;2023-04-09T13:15:26;20.00;68.50
22108;DHT22;11220;48.812;9.128;2023-04-09T13:17:52;20.00;68.30
22108;DHT22;11220;48.812;9.128;2023-04-09T13:20:17;20.30;68.50
22108;DHT22;11220;48.812;9.128;2023-04-09T13:22:43;20.00;68.30
22108;DHT22;11220;48.812;9.128;2023-04-09T13:25:16;20.10;68.40
22108;DHT22;11220;48.812;9.128;2023-04-09T13:27:42;20.10;68.30
22108;DHT22;11220;48.812;9.128;2023-04-09T13:30:07;20.20;68.30
22108;DHT22;11220;48.812;9.128;2023-04-09T13:32:33;20.20;68.20
22108;DHT22;11220;48.812;9.128;2023-04-09T13:34:59;20.30;68.30
22108;DHT22;11220;48.812;9.128;2023-04-09T13:37:24;20.30;68.20
22108;DHT22;11220;48.812;9.128;2023-04-09T13:39:50;20.40;67.90
22108;DHT22;11220;48.812;9.128;2023-04-09T13:42:16;20.40;67.80
22108;DHT22;11220;48.812;9.128;2023-04-09T13:44:42;20.40;67.60
22108;DHT22;11220;48.812;9.128;2023-04-09T13:47:14;20.50;67.70
22108;DHT22;11220;48.812;9.128;2023-04-09T13:49:40;20.50;67.50
22108;DHT22;11220;48.812;9.128;2023-04-09T13:52:06;20.60;67.60
22108;DHT22;11220;48.812;9.128;2023-04-09T13:54:32;20.60;67.30
22108;DHT22;11220;48.812;9.128;2023-04-09T13:56:58;20.60;67.20
22108;DHT22;11220;48.812;9.128;2023-04-09T13:59:24;20.70;67.10
22108;DHT22;11220;48.812;9.128;2023-04-09T14:01:49;20.80;67.10
22108;DHT22;11220;48.812;9.128;2023-04-09T14:04:15;20.80;66.90
22108;DHT22;11220;48.812;9.128;2023-04-09T14:06:41;20.90;66.80
22108;DHT22;11220;48.812;9.128;2023-04-09T14:09:08;20.90;66.70
22108;DHT22;11220;48.812;9.128;2023-04-09T14:11:33;21.00;66.50
22108;DHT22;11220;48.812;9.128;2023-04-09T14:13:59;21.00;66.40
22108;DHT22;11220;48.812;9.128;2023-04-09T14:16:25;21.10;66.30
22108;DHT22;11220;48.812;9.128;2023-04-09T14:18:52;21.20;66.20
22108;DHT22;11220;48.812;9.128;2023-04-09T14:21:18;21.20;66.00
22108;DHT22;11220;48.812;9.128;2023-04-09T14:23:43;21.30;65.90
22108;DHT22;11220;48.812;9.128;2023-04-09T14:26:09;21.30;65.70
22108;DHT22;11220;48.812;9.128;2023-04-09T14:28:35;21.30;65.50
22108;DHT22;11220;48.812;9.128;2023-04-09T14:31:00;21.30;63.60
22108;DHT22;11220;48.812;9.128;2023-04-09T14:33:26;21.30;60.60
22108;DHT22;11220;48.812;9.128;2023-04-09T14:35:52;21.30;59.00
22108;DHT22;11220;48.812;9.128;2023-04-09T14:38:17;21.10;56.20
22108;DHT22;11220;48.812;9.128;2023-04-09T14:40:43;21.00;53.40
22108;DHT22;11220;48.812;9.128;2023-04-09T14:43:09;20.90;51.30
22108;DHT22;11220;48.812;9.128;2023-04-09T14:45:35;20.70;49.10
22108;DHT22;11220;48.812;9.128;2023-04-09T14:48:01;20.40;48.00
22108;DHT22;11220;48.812;9.128;2023-04-09T14:50:30;20.40;47.80
22108;DHT22;11220;48.812;9.128;2023-04-09T14:52:56;20.10;47.60
22108;DHT22;11220;48.812;9.128;2023-04-09T14:55:22;20.10;47.80
22108;DHT22;11220;48.812;9.128;2023-04-09T14:57:49;20.00;47.70
22108;DHT22;11220;48.812;9.128;2023-04-09T15:00:15;19.90;47.10
22108;DHT22;11220;48.812;9.128;2023-04-09T15:02:40;19.80;46.60
22108;DHT22;11220;48.812;9.128;2023-04-09T15:05:07;19.60;46.30
22108;DHT22;11220;48.812;9.128;2023-04-09T15:07:33;19.40;46.40
22108;DHT22;11220;48.812;9.128;2023-04-09T15:09:58;19.30;47.90
22108;DHT22;11220;48.812;9.128;2023-04-09T15:12:31;20.40;49.70
22108;DHT22;11220;48.812;9.128;2023-04-09T15:14:57;19.30;50.00
22108;DHT22;11220;48.812;9.128;2023-04-09T15:17:24;19.40;50.90
22108;DHT22;11220;48.812;9.128;2023-04-09T15:19:51;19.50;51.60
22108;DHT22;11220;48.812;9.128;2023-04-09T15:22:17;19.60;52.00
22108;DHT22;11220;48.812;9.128;2023-04-09T15:24:43;19.70;52.50
22108;DHT22;11220;48.812;9.128;2023-04-09T15:27:08;19.80;53.30
22108;DHT22;11220;48.812;9.128;2023-04-09T15:29:34;19.90;53.70
22108;DHT22;11220;48.812;9.128;2023-04-09T15:31:59;22.00;55.00
22108;DHT22;11220;48.812;9.128;2023-04-09T15:34:25;21.30;54.70
22108;DHT22;11220;48.812;9.128;2023-04-09T15:36:51;20.30;54.40
22108;DHT22;11220;48.812;9.128;2023-04-09T15:39:17;20.30;54.60
22108;DHT22;11220;48.812;9.128;2023-04-09T15:41:43;20.40;54.70
22108;DHT22;11220;48.812;9.128;2023-04-09T15:44:10;21.00;55.20